sensor_id;sensor_type;location;lat;lon;timestamp;P1;durP1;ratioP1;P2;durP2;ratioP2
21825;SDS011;11075;47.944;11.776;2022-12-08T00:01:18;19.70;;;10.63;;
21825;SDS011;11075;47.944;11.776;2022-12-08T00:03:47;21.00;;;10.63;;
21825;SDS011;11075;47.944;11.776;2022-12-08T00:06:24;18.03;;;10.13;;
21825;SDS011;11075;47.944;11.776;2022-12-08T00:09:23;21.33;;;10.47;;
21825;SDS011;11075;47.944;11.776;2022-12-08T00:11:58;20.53;;;11.27;;
21825;SDS011;11075;47.944;11.776;2022-12-08T00:14:29;21.43;;;10.90;;
21825;SDS011;11075;47.944;11.776;2022-12-08T00:17:02;20.27;;;10.87;;
21825;SDS011;11075;47.944;11.776;2022-12-08T00:19:29;19.23;;;10.03;;
21825;SDS011;11075;47.944;11.776;2022-12-08T00:21:58;18.87;;;10.40;;
21825;SDS011;11075;47.944;11.776;2022-12-08T00:24:29;19.50;;;10.93;;
21825;SDS011;11075;47.944;11.776;2022-12-08T00:26:58;18.80;;;10.50;;
21825;SDS011;11075;47.944;11.776;2022-12-08T00:29:25;22.00;;;10.90;;
21825;SDS011;11075;47.944;11.776;2022-12-08T00:31:52;18.67;;;10.43;;
21825;SDS011;11075;47.944;11.776;2022-12-08T00:34:19;20.40;;;10.57;;
21825;SDS011;11075;47.944;11.776;2022-12-08T00:36:47;22.80;;;11.30;;
21825;SDS011;11075;47.944;11.776;2022-12-08T00:39:14;23.37;;;11.83;;
21825;SDS011;11075;47.944;11.776;2022-12-08T00:41:43;17.67;;;10.50;;
21825;SDS011;11075;47.944;11.776;2022-12-08T00:44:28;20.83;;;11.30;;
21825;SDS011;11075;47.944;11.776;2022-12-08T00:46:55;21.93;;;10.60;;
21825;SDS011;11075;47.944;11.776;2022-12-08T00:49:22;26.33;;;10.90;;
21825;SDS011;11075;47.944;11.776;2022-12-08T00:51:49;19.77;;;11.40;;
21825;SDS011;11075;47.944;11.776;2022-12-08T00:54:16;20.73;;;11.63;;
21825;SDS011;11075;47.944;11.776;2022-12-08T00:56:44;25.03;;;11.60;;
21825;SDS011;11075;47.944;11.776;2022-12-08T00:59:12;26.03;;;12.10;;
21825;SDS011;11075;47.944;11.776;2022-12-08T01:01:39;19.87;;;10.43;;
21825;SDS011;11075;47.944;11.776;2022-12-08T01:04:07;20.30;;;11.00;;
21825;SDS011;11075;47.944;11.776;2022-12-08T01:06:37;18.73;;;10.90;;
21825;SDS011;11075;47.944;11.776;2022-12-08T01:09:05;19.33;;;10.90;;
21825;SDS011;11075;47.944;11.776;2022-12-08T01:11:33;20.27;;;11.73;;
21825;SDS011;11075;47.944;11.776;2022-12-08T01:14:01;23.00;;;11.37;;
21825;SDS011;11075;47.944;11.776;2022-12-08T01:16:30;21.50;;;11.03;;
21825;SDS011;11075;47.944;11.776;2022-12-08T01:19:00;18.63;;;10.33;;
21825;SDS011;11075;47.944;11.776;2022-12-08T01:21:27;36.70;;;19.23;;
21825;SDS011;11075;47.944;11.776;2022-12-08T01:23:54;57.97;;;27.27;;
21825;SDS011;11075;47.944;11.776;2022-12-08T01:26:21;28.73;;;15.50;;
21825;SDS011;11075;47.944;11.776;2022-12-08T01:28:48;21.77;;;11.40;;
21825;SDS011;11075;47.944;11.776;2022-12-08T01:31:16;19.43;;;10.63;;
21825;SDS011;11075;47.944;11.776;2022-12-08T01:33:46;18.80;;;10.97;;
21825;SDS011;11075;47.944;11.776;2022-12-08T01:36:19;22.33;;;11.77;;
21825;SDS011;11075;47.944;11.776;2022-12-08T01:38:50;23.90;;;12.20;;
21825;SDS011;11075;47.944;11.776;2022-12-08T01:41:19;19.87;;;11.23;;
21825;SDS011;11075;47.944;11.776;2022-12-08T01:44:49;21.03;;;11.23;;
21825;SDS011;11075;47.944;11.776;2022-12-08T01:46:50;23.47;;;12.10;;
21825;SDS011;11075;47.944;11.776;2022-12-08T01:49:26;23.10;;;11.43;;
21825;SDS011;11075;47.944;11.776;2022-12-08T01:52:39;20.53;;;11.30;;
21825;SDS011;11075;47.944;11.776;2022-12-08T01:54:59;27.50;;;13.87;;
21825;SDS011;11075;47.944;11.776;2022-12-08T01:57:50;20.07;;;11.67;;
21825;SDS011;11075;47.944;11.776;2022-12-08T02:00:21;22.23;;;11.53;;
21825;SDS011;11075;47.944;11.776;2022-12-08T02:02:51;20.93;;;11.40;;
21825;SDS011;11075;47.944;11.776;2022-12-08T02:05:23;21.70;;;11.20;;
21825;SDS011;11075;47.944;11.776;2022-12-08T02:07:56;22.33;;;10.93;;
21825;SDS011;11075;47.944;11.776;2022-12-08T02:10:26;21.70;;;12.10;;
21825;SDS011;11075;47.944;11.776;2022-12-08T02:12:55;22.63;;;12.00;;
21825;SDS011;11075;47.944;11.776;2022-12-08T02:23:30;18.97;;;11.07;;
21825;SDS011;11075;47.944;11.776;2022-12-08T02:37:07;19.20;;;9.93;;
21825;SDS011;11075;47.944;11.776;2022-12-08T02:39:58;18.90;;;10.33;;
21825;SDS011;11075;47.944;11.776;2022-12-08T02:42:35;20.50;;;10.93;;
21825;SDS011;11075;47.944;11.776;2022-12-08T02:45:52;18.33;;;9.70;;
21825;SDS011;11075;47.944;11.776;2022-12-08T02:48:27;20.30;;;10.40;;
21825;SDS011;11075;47.944;11.776;2022-12-08T02:50:55;18.77;;;10.67;;
21825;SDS011;11075;47.944;11.776;2022-12-08T02:53:21;17.10;;;9.70;;
21825;SDS011;11075;47.944;11.776;2022-12-08T02:55:53;24.47;;;11.50;;
21825;SDS011;11075;47.944;11.776;2022-12-08T03:01:29;19.17;;;10.37;;
21825;SDS011;11075;47.944;11.776;2022-12-08T03:04:40;23.27;;;12.77;;
21825;SDS011;11075;47.944;11.776;2022-12-08T03:10:08;20.77;;;10.17;;
21825;SDS011;11075;47.944;11.776;2022-12-08T03:12:42;16.60;;;9.80;;
21825;SDS011;11075;47.944;11.776;2022-12-08T03:15:23;20.23;;;9.70;;
21825;SDS011;11075;47.944;11.776;2022-12-08T03:17:51;19.33;;;10.07;;
21825;SDS011;11075;47.944;11.776;2022-12-08T03:20:23;24.73;;;11.10;;
21825;SDS011;11075;47.944;11.776;2022-12-08T03:22:51;18.00;;;10.07;;
21825;SDS011;11075;47.944;11.776;2022-12-08T03:25:22;20.07;;;10.53;;
21825;SDS011;11075;47.944;11.776;2022-12-08T03:27:51;20.07;;;10.33;;
21825;SDS011;11075;47.944;11.776;2022-12-08T03:30:19;21.10;;;10.63;;
21825;SDS011;11075;47.944;11.776;2022-12-08T03:32:56;19.50;;;10.83;;
21825;SDS011;11075;47.944;11.776;2022-12-08T03:35:30;20.57;;;10.17;;
21825;SDS011;11075;47.944;11.776;2022-12-08T03:38:03;19.90;;;10.00;;
21825;SDS011;11075;47.944;11.776;2022-12-08T03:40:36;19.13;;;10.53;;
21825;SDS011;11075;47.944;11.776;2022-12-08T03:43:04;18.87;;;10.70;;
21825;SDS011;11075;47.944;11.776;2022-12-08T03:45:31;20.13;;;9.20;;
21825;SDS011;11075;47.944;11.776;2022-12-08T03:47:59;21.13;;;10.77;;
21825;SDS011;11075;47.944;11.776;2022-12-08T03:50:26;20.57;;;10.50;;
21825;SDS011;11075;47.944;11.776;2022-12-08T03:52:53;20.73;;;10.87;;
21825;SDS011;11075;47.944;11.776;2022-12-08T03:55:20;17.07;;;10.20;;
21825;SDS011;11075;47.944;11.776;2022-12-08T03:57:47;16.03;;;9.57;;
21825;SDS011;11075;47.944;11.776;2022-12-08T04:00:15;19.73;;;10.73;;
21825;SDS011;11075;47.944;11.776;2022-12-08T04:02:42;22.03;;;10.30;;
21825;SDS011;11075;47.944;11.776;2022-12-08T04:05:09;18.03;;;9.20;;
21825;SDS011;11075;47.944;11.776;2022-12-08T04:07:36;18.77;;;10.50;;
21825;SDS011;11075;47.944;11.776;2022-12-08T04:10:03;18.23;;;10.23;;
21825;SDS011;11075;47.944;11.776;2022-12-08T04:12:31;17.97;;;9.87;;
21825;SDS011;11075;47.944;11.776;2022-12-08T04:14:58;17.60;;;9.23;;
21825;SDS011;11075;47.944;11.776;2022-12-08T04:17:25;16.67;;;9.53;;
21825;SDS011;11075;47.944;11.776;2022-12-08T04:19:51;20.10;;;10.17;;
21825;SDS011;11075;47.944;11.776;2022-12-08T04:22:18;15.00;;;9.57;;
21825;SDS011;11075;47.944;11.776;2022-12-08T04:24:46;17.20;;;9.23;;
21825;SDS011;11075;47.944;11.776;2022-12-08T04:27:13;17.27;;;8.80;;
21825;SDS011;11075;47.944;11.776;2022-12-08T04:29:40;16.60;;;9.13;;
21825;SDS011;11075;47.944;11.776;2022-12-08T04:32:06;15.77;;;9.50;;
21825;SDS011;11075;47.944;11.776;2022-12-08T04:34:33;15.20;;;9.00;;
21825;SDS011;11075;47.944;11.776;2022-12-08T04:37:01;19.93;;;9.73;;
21825;SDS011;11075;47.944;11.776;2022-12-08T04:39:28;17.17;;;9.43;;
21825;SDS011;11075;47.944;11.776;2022-12-08T04:41:54;18.03;;;9.60;;
21825;SDS011;11075;47.944;11.776;2022-12-08T04:44:21;13.97;;;8.70;;
21825;SDS011;11075;47.944;11.776;2022-12-08T04:46:48;18.27;;;9.87;;
21825;SDS011;11075;47.944;11.776;2022-12-08T04:49:15;16.90;;;9.37;;
21825;SDS011;11075;47.944;11.776;2022-12-08T04:51:42;15.37;;;9.13;;
21825;SDS011;11075;47.944;11.776;2022-12-08T04:54:08;18.23;;;10.00;;
21825;SDS011;11075;47.944;11.776;2022-12-08T04:56:35;18.57;;;9.87;;
21825;SDS011;11075;47.944;11.776;2022-12-08T04:59:02;17.40;;;9.17;;
21825;SDS011;11075;47.944;11.776;2022-12-08T05:01:30;16.10;;;9.03;;
21825;SDS011;11075;47.944;11.776;2022-12-08T05:03:57;20.57;;;9.00;;
21825;SDS011;11075;47.944;11.776;2022-12-08T05:06:24;17.90;;;9.50;;
21825;SDS011;11075;47.944;11.776;2022-12-08T05:08:51;14.50;;;8.57;;
21825;SDS011;11075;47.944;11.776;2022-12-08T05:11:18;19.83;;;9.23;;
21825;SDS011;11075;47.944;11.776;2022-12-08T05:13:45;16.43;;;8.43;;
21825;SDS011;11075;47.944;11.776;2022-12-08T05:16:13;17.63;;;8.60;;
21825;SDS011;11075;47.944;11.776;2022-12-08T05:18:41;20.07;;;9.17;;
21825;SDS011;11075;47.944;11.776;2022-12-08T05:21:08;18.53;;;9.00;;
21825;SDS011;11075;47.944;11.776;2022-12-08T05:23:35;14.57;;;8.57;;
21825;SDS011;11075;47.944;11.776;2022-12-08T05:26:02;14.77;;;7.83;;
21825;SDS011;11075;47.944;11.776;2022-12-08T05:28:30;15.47;;;8.30;;
21825;SDS011;11075;47.944;11.776;2022-12-08T05:31:09;17.10;;;8.40;;
21825;SDS011;11075;47.944;11.776;2022-12-08T05:33:37;13.83;;;7.73;;
21825;SDS011;11075;47.944;11.776;2022-12-08T05:36:03;15.83;;;8.50;;
21825;SDS011;11075;47.944;11.776;2022-12-08T05:38:32;18.17;;;9.00;;
21825;SDS011;11075;47.944;11.776;2022-12-08T05:40:59;15.77;;;8.60;;
21825;SDS011;11075;47.944;11.776;2022-12-08T05:43:26;17.47;;;8.97;;
21825;SDS011;11075;47.944;11.776;2022-12-08T05:45:52;16.67;;;8.87;;
21825;SDS011;11075;47.944;11.776;2022-12-08T05:48:20;15.83;;;8.20;;
21825;SDS011;11075;47.944;11.776;2022-12-08T05:50:47;15.23;;;8.53;;
21825;SDS011;11075;47.944;11.776;2022-12-08T05:53:16;14.70;;;7.97;;
21825;SDS011;11075;47.944;11.776;2022-12-08T05:55:45;17.97;;;8.43;;
21825;SDS011;11075;47.944;11.776;2022-12-08T05:58:16;18.33;;;8.73;;
21825;SDS011;11075;47.944;11.776;2022-12-08T06:00:46;15.83;;;8.07;;
21825;SDS011;11075;47.944;11.776;2022-12-08T06:03:14;16.47;;;8.57;;
21825;SDS011;11075;47.944;11.776;2022-12-08T06:05:43;18.93;;;8.03;;
21825;SDS011;11075;47.944;11.776;2022-12-08T06:08:11;16.50;;;8.70;;
21825;SDS011;11075;47.944;11.776;2022-12-08T06:10:39;14.47;;;7.53;;
21825;SDS011;11075;47.944;11.776;2022-12-08T06:13:07;14.27;;;7.50;;
21825;SDS011;11075;47.944;11.776;2022-12-08T06:15:34;18.27;;;7.77;;
21825;SDS011;11075;47.944;11.776;2022-12-08T06:18:04;13.07;;;7.23;;
21825;SDS011;11075;47.944;11.776;2022-12-08T06:20:32;15.30;;;7.20;;
21825;SDS011;11075;47.944;11.776;2022-12-08T06:23:01;19.10;;;7.70;;
21825;SDS011;11075;47.944;11.776;2022-12-08T06:25:29;15.73;;;7.87;;
21825;SDS011;11075;47.944;11.776;2022-12-08T06:27:56;12.73;;;6.77;;
21825;SDS011;11075;47.944;11.776;2022-12-08T06:30:22;14.20;;;7.17;;
21825;SDS011;11075;47.944;11.776;2022-12-08T06:32:49;13.10;;;7.03;;
21825;SDS011;11075;47.944;11.776;2022-12-08T06:35:16;11.90;;;6.53;;
21825;SDS011;11075;47.944;11.776;2022-12-08T06:37:43;14.00;;;7.90;;
21825;SDS011;11075;47.944;11.776;2022-12-08T06:40:09;12.90;;;7.33;;
21825;SDS011;11075;47.944;11.776;2022-12-08T06:42:37;14.80;;;7.73;;
21825;SDS011;11075;47.944;11.776;2022-12-08T06:45:10;13.27;;;6.80;;
21825;SDS011;11075;47.944;11.776;2022-12-08T06:47:38;15.17;;;7.87;;
21825;SDS011;11075;47.944;11.776;2022-12-08T06:50:06;16.13;;;8.20;;
21825;SDS011;11075;47.944;11.776;2022-12-08T06:52:36;13.53;;;6.70;;
21825;SDS011;11075;47.944;11.776;2022-12-08T06:55:12;15.27;;;6.97;;
21825;SDS011;11075;47.944;11.776;2022-12-08T06:57:59;13.70;;;7.00;;
21825;SDS011;11075;47.944;11.776;2022-12-08T07:00:26;13.70;;;6.60;;
21825;SDS011;11075;47.944;11.776;2022-12-08T07:02:52;13.50;;;7.60;;
21825;SDS011;11075;47.944;11.776;2022-12-08T07:05:19;12.23;;;7.30;;
21825;SDS011;11075;47.944;11.776;2022-12-08T07:07:46;13.17;;;6.60;;
21825;SDS011;11075;47.944;11.776;2022-12-08T07:10:13;12.27;;;6.77;;
21825;SDS011;11075;47.944;11.776;2022-12-08T07:12:40;13.37;;;6.93;;
21825;SDS011;11075;47.944;11.776;2022-12-08T07:15:06;12.70;;;6.97;;
21825;SDS011;11075;47.944;11.776;2022-12-08T07:17:34;9.03;;;5.47;;
21825;SDS011;11075;47.944;11.776;2022-12-08T07:20:01;14.93;;;6.33;;
21825;SDS011;11075;47.944;11.776;2022-12-08T07:22:29;10.43;;;5.90;;
21825;SDS011;11075;47.944;11.776;2022-12-08T07:24:56;9.20;;;5.93;;
21825;SDS011;11075;47.944;11.776;2022-12-08T07:27:22;8.93;;;5.37;;
21825;SDS011;11075;47.944;11.776;2022-12-08T07:29:49;10.70;;;5.33;;
21825;SDS011;11075;47.944;11.776;2022-12-08T07:32:16;12.83;;;5.90;;
21825;SDS011;11075;47.944;11.776;2022-12-08T07:34:43;10.33;;;5.57;;
21825;SDS011;11075;47.944;11.776;2022-12-08T07:37:12;13.17;;;6.37;;
21825;SDS011;11075;47.944;11.776;2022-12-08T07:39:39;11.87;;;5.90;;
21825;SDS011;11075;47.944;11.776;2022-12-08T07:42:07;8.80;;;5.50;;
21825;SDS011;11075;47.944;11.776;2022-12-08T07:44:36;10.60;;;6.50;;
21825;SDS011;11075;47.944;11.776;2022-12-08T07:47:03;10.33;;;6.07;;
21825;SDS011;11075;47.944;11.776;2022-12-08T07:49:30;10.33;;;5.80;;
21825;SDS011;11075;47.944;11.776;2022-12-08T07:51:57;9.77;;;5.37;;
21825;SDS011;11075;47.944;11.776;2022-12-08T07:54:23;9.07;;;5.27;;
21825;SDS011;11075;47.944;11.776;2022-12-08T07:56:50;9.73;;;5.57;;
21825;SDS011;11075;47.944;11.776;2022-12-08T07:59:18;11.90;;;5.90;;
21825;SDS011;11075;47.944;11.776;2022-12-08T08:01:47;10.97;;;5.77;;
21825;SDS011;11075;47.944;11.776;2022-12-08T08:04:34;11.00;;;6.03;;
21825;SDS011;11075;47.944;11.776;2022-12-08T08:07:02;9.73;;;5.43;;
21825;SDS011;11075;47.944;11.776;2022-12-08T08:09:29;9.13;;;5.37;;
21825;SDS011;11075;47.944;11.776;2022-12-08T08:11:55;12.53;;;5.50;;
21825;SDS011;11075;47.944;11.776;2022-12-08T08:14:42;11.33;;;6.20;;
21825;SDS011;11075;47.944;11.776;2022-12-08T08:17:09;9.23;;;6.00;;
21825;SDS011;11075;47.944;11.776;2022-12-08T08:19:37;11.13;;;6.63;;
21825;SDS011;11075;47.944;11.776;2022-12-08T08:22:03;11.70;;;6.87;;
21825;SDS011;11075;47.944;11.776;2022-12-08T08:24:30;11.27;;;6.70;;
21825;SDS011;11075;47.944;11.776;2022-12-08T08:26:57;12.50;;;7.47;;
21825;SDS011;11075;47.944;11.776;2022-12-08T08:29:24;11.07;;;7.17;;
21825;SDS011;11075;47.944;11.776;2022-12-08T08:31:51;8.67;;;6.30;;
21825;SDS011;11075;47.944;11.776;2022-12-08T08:34:18;8.90;;;5.90;;
21825;SDS011;11075;47.944;11.776;2022-12-08T08:36:45;6.83;;;5.07;;
21825;SDS011;11075;47.944;11.776;2022-12-08T08:39:12;5.63;;;4.60;;
21825;SDS011;11075;47.944;11.776;2022-12-08T08:41:39;4.90;;;4.07;;
21825;SDS011;11075;47.944;11.776;2022-12-08T08:44:07;4.70;;;4.20;;
21825;SDS011;11075;47.944;11.776;2022-12-08T08:46:34;5.43;;;4.20;;
21825;SDS011;11075;47.944;11.776;2022-12-08T08:49:01;5.13;;;3.90;;
21825;SDS011;11075;47.944;11.776;2022-12-08T08:51:27;5.37;;;4.03;;
21825;SDS011;11075;47.944;11.776;2022-12-08T08:53:54;5.10;;;3.80;;
21825;SDS011;11075;47.944;11.776;2022-12-08T08:56:22;4.03;;;3.50;;
21825;SDS011;11075;47.944;11.776;2022-12-08T08:58:50;5.23;;;3.93;;
21825;SDS011;11075;47.944;11.776;2022-12-08T09:01:20;5.33;;;3.80;;
21825;SDS011;11075;47.944;11.776;2022-12-08T09:03:50;6.17;;;4.07;;
21825;SDS011;11075;47.944;11.776;2022-12-08T09:06:18;4.73;;;3.80;;
21825;SDS011;11075;47.944;11.776;2022-12-08T09:08:46;4.67;;;4.17;;
21825;SDS011;11075;47.944;11.776;2022-12-08T09:11:13;5.70;;;3.90;;
21825;SDS011;11075;47.944;11.776;2022-12-08T09:13:40;4.77;;;4.27;;
21825;SDS011;11075;47.944;11.776;2022-12-08T09:16:08;5.03;;;4.00;;
21825;SDS011;11075;47.944;11.776;2022-12-08T09:18:36;5.73;;;4.53;;
21825;SDS011;11075;47.944;11.776;2022-12-08T09:21:05;5.83;;;4.40;;
21825;SDS011;11075;47.944;11.776;2022-12-08T09:23:34;5.47;;;3.80;;
21825;SDS011;11075;47.944;11.776;2022-12-08T09:26:03;5.43;;;4.30;;
21825;SDS011;11075;47.944;11.776;2022-12-08T09:28:31;5.70;;;4.80;;
21825;SDS011;11075;47.944;11.776;2022-12-08T09:30:58;5.40;;;4.10;;
21825;SDS011;11075;47.944;11.776;2022-12-08T09:33:26;5.60;;;3.93;;
21825;SDS011;11075;47.944;11.776;2022-12-08T09:35:53;6.27;;;4.80;;
21825;SDS011;11075;47.944;11.776;2022-12-08T09:38:20;5.47;;;4.57;;
21825;SDS011;11075;47.944;11.776;2022-12-08T09:40:49;6.37;;;4.37;;
21825;SDS011;11075;47.944;11.776;2022-12-08T09:43:42;5.87;;;4.43;;
21825;SDS011;11075;47.944;11.776;2022-12-08T09:46:26;6.63;;;4.30;;
21825;SDS011;11075;47.944;11.776;2022-12-08T09:48:57;6.83;;;5.00;;
21825;SDS011;11075;47.944;11.776;2022-12-08T09:51:29;6.40;;;5.27;;
21825;SDS011;11075;47.944;11.776;2022-12-08T09:54:03;7.63;;;5.67;;
21825;SDS011;11075;47.944;11.776;2022-12-08T09:56:35;7.03;;;5.00;;
21825;SDS011;11075;47.944;11.776;2022-12-08T10:01:49;7.90;;;4.60;;
21825;SDS011;11075;47.944;11.776;2022-12-08T10:04:25;7.00;;;5.17;;
21825;SDS011;11075;47.944;11.776;2022-12-08T10:13:02;8.17;;;6.03;;
21825;SDS011;11075;47.944;11.776;2022-12-08T10:15:49;9.13;;;6.63;;
21825;SDS011;11075;47.944;11.776;2022-12-08T10:18:30;10.03;;;7.17;;
21825;SDS011;11075;47.944;11.776;2022-12-08T10:21:15;9.03;;;6.80;;
21825;SDS011;11075;47.944;11.776;2022-12-08T10:23:47;9.10;;;6.40;;
21825;SDS011;11075;47.944;11.776;2022-12-08T10:26:19;9.87;;;6.50;;
21825;SDS011;11075;47.944;11.776;2022-12-08T10:28:48;9.40;;;6.93;;
21825;SDS011;11075;47.944;11.776;2022-12-08T10:31:20;8.30;;;6.87;;
21825;SDS011;11075;47.944;11.776;2022-12-08T10:34:00;9.07;;;6.37;;
21825;SDS011;11075;47.944;11.776;2022-12-08T10:39:29;7.20;;;5.57;;
21825;SDS011;11075;47.944;11.776;2022-12-08T10:47:23;8.20;;;6.30;;
21825;SDS011;11075;47.944;11.776;2022-12-08T10:52:56;9.57;;;6.50;;
21825;SDS011;11075;47.944;11.776;2022-12-08T10:55:26;8.20;;;5.50;;
21825;SDS011;11075;47.944;11.776;2022-12-08T10:57:54;5.70;;;4.13;;
21825;SDS011;11075;47.944;11.776;2022-12-08T11:00:25;5.70;;;4.80;;
21825;SDS011;11075;47.944;11.776;2022-12-08T11:02:57;6.13;;;4.83;;
21825;SDS011;11075;47.944;11.776;2022-12-08T11:05:31;5.70;;;4.80;;
21825;SDS011;11075;47.944;11.776;2022-12-08T11:08:00;5.23;;;4.17;;
21825;SDS011;11075;47.944;11.776;2022-12-08T11:10:41;6.67;;;2.70;;
21825;SDS011;11075;47.944;11.776;2022-12-08T11:13:13;2.87;;;2.53;;
21825;SDS011;11075;47.944;11.776;2022-12-08T11:15:46;2.60;;;2.40;;
21825;SDS011;11075;47.944;11.776;2022-12-08T11:18:20;2.40;;;2.10;;
21825;SDS011;11075;47.944;11.776;2022-12-08T11:20:55;2.53;;;2.03;;
21825;SDS011;11075;47.944;11.776;2022-12-08T11:23:25;2.87;;;2.20;;
21825;SDS011;11075;47.944;11.776;2022-12-08T11:25:55;3.30;;;2.50;;
21825;SDS011;11075;47.944;11.776;2022-12-08T11:28:28;3.40;;;3.10;;
21825;SDS011;11075;47.944;11.776;2022-12-08T11:31:00;4.00;;;3.37;;
21825;SDS011;11075;47.944;11.776;2022-12-08T11:33:33;4.40;;;3.27;;
21825;SDS011;11075;47.944;11.776;2022-12-08T11:36:06;5.23;;;3.17;;
21825;SDS011;11075;47.944;11.776;2022-12-08T11:38:42;3.37;;;2.90;;
21825;SDS011;11075;47.944;11.776;2022-12-08T11:41:13;2.93;;;2.37;;
21825;SDS011;11075;47.944;11.776;2022-12-08T11:46:18;4.83;;;2.60;;
21825;SDS011;11075;47.944;11.776;2022-12-08T11:49:00;3.20;;;2.43;;
21825;SDS011;11075;47.944;11.776;2022-12-08T11:51:33;6.77;;;3.10;;
21825;SDS011;11075;47.944;11.776;2022-12-08T11:54:12;4.37;;;3.23;;
21825;SDS011;11075;47.944;11.776;2022-12-08T11:56:59;6.90;;;2.80;;
21825;SDS011;11075;47.944;11.776;2022-12-08T11:59:30;5.30;;;3.23;;
21825;SDS011;11075;47.944;11.776;2022-12-08T12:02:00;6.37;;;3.53;;
21825;SDS011;11075;47.944;11.776;2022-12-08T12:04:37;13.37;;;3.37;;
21825;SDS011;11075;47.944;11.776;2022-12-08T12:23:31;5.63;;;4.00;;
21825;SDS011;11075;47.944;11.776;2022-12-08T12:26:04;7.67;;;4.40;;
21825;SDS011;11075;47.944;11.776;2022-12-08T12:28:44;6.10;;;3.80;;
21825;SDS011;11075;47.944;11.776;2022-12-08T12:31:35;5.40;;;3.90;;
21825;SDS011;11075;47.944;11.776;2022-12-08T12:36:44;5.57;;;4.20;;
21825;SDS011;11075;47.944;11.776;2022-12-08T12:42:37;6.37;;;4.10;;
21825;SDS011;11075;47.944;11.776;2022-12-08T12:47:52;7.67;;;5.00;;
21825;SDS011;11075;47.944;11.776;2022-12-08T13:03:35;5.63;;;4.00;;
21825;SDS011;11075;47.944;11.776;2022-12-08T13:06:07;7.70;;;3.70;;
21825;SDS011;11075;47.944;11.776;2022-12-08T13:08:50;4.77;;;3.50;;
21825;SDS011;11075;47.944;11.776;2022-12-08T13:11:22;4.20;;;3.30;;
21825;SDS011;11075;47.944;11.776;2022-12-08T13:16:24;6.07;;;3.83;;
21825;SDS011;11075;47.944;11.776;2022-12-08T13:19:02;5.87;;;3.13;;
21825;SDS011;11075;47.944;11.776;2022-12-08T13:21:34;4.23;;;2.47;;
21825;SDS011;11075;47.944;11.776;2022-12-08T13:26:44;2.57;;;2.20;;
21825;SDS011;11075;47.944;11.776;2022-12-08T13:29:32;6.37;;;2.70;;
21825;SDS011;11075;47.944;11.776;2022-12-08T13:34:49;3.80;;;2.90;;
21825;SDS011;11075;47.944;11.776;2022-12-08T13:37:30;7.23;;;3.50;;
21825;SDS011;11075;47.944;11.776;2022-12-08T13:40:24;3.60;;;2.87;;
21825;SDS011;11075;47.944;11.776;2022-12-08T13:43:07;8.27;;;4.40;;
21825;SDS011;11075;47.944;11.776;2022-12-08T13:45:55;13.87;;;10.17;;
21825;SDS011;11075;47.944;11.776;2022-12-08T13:48:50;5.43;;;4.13;;
21825;SDS011;11075;47.944;11.776;2022-12-08T13:51:42;5.27;;;3.10;;
21825;SDS011;11075;47.944;11.776;2022-12-08T13:54:33;3.70;;;2.93;;
21825;SDS011;11075;47.944;11.776;2022-12-08T13:57:26;2.73;;;1.90;;
21825;SDS011;11075;47.944;11.776;2022-12-08T14:00:00;1.70;;;1.30;;
21825;SDS011;11075;47.944;11.776;2022-12-08T14:02:41;1.93;;;1.27;;
21825;SDS011;11075;47.944;11.776;2022-12-08T14:05:14;2.40;;;1.73;;
21825;SDS011;11075;47.944;11.776;2022-12-08T14:08:03;3.47;;;2.50;;
21825;SDS011;11075;47.944;11.776;2022-12-08T14:11:01;3.63;;;2.43;;
21825;SDS011;11075;47.944;11.776;2022-12-08T14:13:30;4.47;;;3.00;;
21825;SDS011;11075;47.944;11.776;2022-12-08T14:15:59;6.17;;;2.80;;
21825;SDS011;11075;47.944;11.776;2022-12-08T14:18:28;4.50;;;2.73;;
21825;SDS011;11075;47.944;11.776;2022-12-08T14:21:00;8.20;;;3.40;;
21825;SDS011;11075;47.944;11.776;2022-12-08T14:23:47;5.10;;;3.40;;
21825;SDS011;11075;47.944;11.776;2022-12-08T14:26:14;6.27;;;4.10;;
21825;SDS011;11075;47.944;11.776;2022-12-08T14:28:41;6.67;;;4.30;;
21825;SDS011;11075;47.944;11.776;2022-12-08T14:31:11;7.33;;;3.43;;
21825;SDS011;11075;47.944;11.776;2022-12-08T14:33:41;8.90;;;4.37;;
21825;SDS011;11075;47.944;11.776;2022-12-08T14:36:08;7.50;;;3.60;;
21825;SDS011;11075;47.944;11.776;2022-12-08T14:38:39;7.87;;;3.50;;
21825;SDS011;11075;47.944;11.776;2022-12-08T14:41:08;6.70;;;3.90;;
21825;SDS011;11075;47.944;11.776;2022-12-08T14:43:38;3.90;;;2.80;;
21825;SDS011;11075;47.944;11.776;2022-12-08T14:46:20;6.67;;;3.50;;
21825;SDS011;11075;47.944;11.776;2022-12-08T14:48:48;6.17;;;3.73;;
21825;SDS011;11075;47.944;11.776;2022-12-08T14:53:45;7.50;;;4.00;;
21825;SDS011;11075;47.944;11.776;2022-12-08T14:56:20;5.27;;;3.63;;
21825;SDS011;11075;47.944;11.776;2022-12-08T14:58:49;5.80;;;3.53;;
21825;SDS011;11075;47.944;11.776;2022-12-08T15:01:28;4.67;;;3.17;;
21825;SDS011;11075;47.944;11.776;2022-12-08T15:04:00;5.20;;;3.30;;
21825;SDS011;11075;47.944;11.776;2022-12-08T15:06:32;6.90;;;4.00;;
21825;SDS011;11075;47.944;11.776;2022-12-08T15:09:12;4.63;;;3.43;;
21825;SDS011;11075;47.944;11.776;2022-12-08T15:11:42;8.67;;;4.00;;
21825;SDS011;11075;47.944;11.776;2022-12-08T15:14:30;5.77;;;3.67;;
21825;SDS011;11075;47.944;11.776;2022-12-08T15:17:01;4.93;;;3.10;;
21825;SDS011;11075;47.944;11.776;2022-12-08T15:19:30;7.90;;;3.90;;
21825;SDS011;11075;47.944;11.776;2022-12-08T15:22:08;7.30;;;4.17;;
21825;SDS011;11075;47.944;11.776;2022-12-08T15:24:44;5.93;;;3.93;;
21825;SDS011;11075;47.944;11.776;2022-12-08T15:27:18;8.30;;;4.30;;
21825;SDS011;11075;47.944;11.776;2022-12-08T15:29:47;6.37;;;4.33;;
21825;SDS011;11075;47.944;11.776;2022-12-08T15:32:21;5.83;;;4.30;;
21825;SDS011;11075;47.944;11.776;2022-12-08T15:34:49;7.17;;;4.40;;
21825;SDS011;11075;47.944;11.776;2022-12-08T15:37:19;8.57;;;4.40;;
21825;SDS011;11075;47.944;11.776;2022-12-08T15:39:48;7.40;;;4.20;;
21825;SDS011;11075;47.944;11.776;2022-12-08T15:42:15;6.77;;;4.30;;
21825;SDS011;11075;47.944;11.776;2022-12-08T15:44:42;7.40;;;4.50;;
21825;SDS011;11075;47.944;11.776;2022-12-08T15:47:12;6.73;;;4.50;;
21825;SDS011;11075;47.944;11.776;2022-12-08T15:49:42;6.47;;;4.27;;
21825;SDS011;11075;47.944;11.776;2022-12-08T15:52:27;8.83;;;4.27;;
21825;SDS011;11075;47.944;11.776;2022-12-08T15:54:54;8.07;;;4.63;;
21825;SDS011;11075;47.944;11.776;2022-12-08T15:57:23;6.00;;;3.70;;
21825;SDS011;11075;47.944;11.776;2022-12-08T16:06:18;6.57;;;4.23;;
21825;SDS011;11075;47.944;11.776;2022-12-08T16:09:10;7.50;;;4.50;;
21825;SDS011;11075;47.944;11.776;2022-12-08T16:11:43;7.07;;;4.40;;
21825;SDS011;11075;47.944;11.776;2022-12-08T16:14:33;7.43;;;4.33;;
21825;SDS011;11075;47.944;11.776;2022-12-08T16:17:20;8.63;;;4.23;;
21825;SDS011;11075;47.944;11.776;2022-12-08T16:19:47;8.57;;;4.87;;
21825;SDS011;11075;47.944;11.776;2022-12-08T16:22:16;8.17;;;4.57;;
21825;SDS011;11075;47.944;11.776;2022-12-08T16:25:08;8.27;;;4.77;;
21825;SDS011;11075;47.944;11.776;2022-12-08T16:27:50;7.60;;;4.27;;
21825;SDS011;11075;47.944;11.776;2022-12-08T16:30:38;9.50;;;5.27;;
21825;SDS011;11075;47.944;11.776;2022-12-08T16:33:05;7.90;;;4.70;;